Forest Hill, Texas
Current Conditions -  °F | °C
As of 6:48 AM on Thursday 23 Oct 2014 (Local Time) from KFWS Reporting Station
Overcast Overcast  
Wind Chill: 64°   Ceiling: 6000
Heat Index: 64°   Visibility: 10mi
Dew Point: 55°   Wind: 5mph
Humidity: 73%   Direction: 140°SE
Pressure: 30.14"   Gusts: NA
Location:  32.66°N, 97.27°W
Report Text: KFWS 231148Z 14004KT 10SM OVC060 18/13 A3014
Loading
Personal Weather Stations






























Interactive Weather Map
Tropical Storm Tracking
New forecast layout! Learn more

10-Day Weather Forecast

Advertisements
Track Severe Weather on mobile